»·PEaware :: N58630 KBFL-KVCV

N58630 :: KBFL-KVCV

FLIGHT INFORMATION

Flight Status: Arrived
Operator: Privately registered:
United States
More flights under this callsign
Pilot: Alex C. (14758)
Aircraft: PIPER PA-34 SENECA
(PA34)
More flights by this aircraft type
Origin: KBFL Meadows
United States
Destination: KVCV Socal Logistics
United States
More flights between these airports :: More routes between these airports
Route: +MEADO3 PMD
File this flight plan on PilotEdge
Remarks: IFR KSBA / KPSP 17,000
Altitude:
(Current/Filed)
13,000ft
Speed:
(Current/Filed)
180kts
Departed: 08-Oct-17 12:30 PM
Arrived: 08-Oct-17 01:55 PM
Distance/Time
Traveled:
97nm/1:24
Distance/Time
To Go:
Arrived

Flight Plot

Page will automatically refresh every two minutes.

Flight plan parsing failed; only flown route is shown


Map Options




Map Legend


Flown Route
Filed Route
Departure Airport
Arrival Airport
Navaid (VOR, NDB)
Fix

Horizontal Profiles

Position Reports

Time Latitude Longitude Heading Altitude Ground
Speed
08-Oct-17 12:15 35.429378 -119.046105 226 508ft 0kts
08-Oct-17 12:16 35.429378 -119.046105 226 508ft 0kts
08-Oct-17 12:17 35.429378 -119.046105 226 508ft 0kts
08-Oct-17 12:18 35.429378 -119.046105 226 508ft 0kts
08-Oct-17 12:19 35.429378 -119.046105 226 508ft 0kts
08-Oct-17 12:20 35.429378 -119.046105 226 508ft 0kts
08-Oct-17 12:21 35.429378 -119.046105 226 508ft 0kts
08-Oct-17 12:22 35.429378 -119.046105 226 508ft 0kts
08-Oct-17 12:23 35.429378 -119.046105 226 508ft 0kts
08-Oct-17 12:24 35.429378 -119.046105 226 508ft 0kts
08-Oct-17 12:25 35.429377 -119.046106 226 508ft 0kts
08-Oct-17 12:26 35.429377 -119.046106 226 508ft 0kts
08-Oct-17 12:27 35.429377 -119.046106 226 508ft 0kts
08-Oct-17 12:28 35.429369 -119.046116 226 508ft 0kts
08-Oct-17 12:29 35.428367 -119.047192 178 508ft 12kts
08-Oct-17 12:30 35.426243 -119.044775 133 508ft 17kts
08-Oct-17 12:31 35.425808 -119.044663 224 508ft 0kts
08-Oct-17 12:32 35.425808 -119.044663 224 508ft 0kts
08-Oct-17 12:33 35.425808 -119.044663 224 508ft 0kts
08-Oct-17 12:34 35.426662 -119.047558 318 508ft 63kts
08-Oct-17 12:35 35.440764 -119.065306 313 1278ft 98kts
08-Oct-17 12:36 35.454649 -119.083297 313 2269ft 92kts
08-Oct-17 12:37 35.468151 -119.100655 312 3011ft 106kts
08-Oct-17 12:38 35.486801 -119.125095 313 3018ft 143kts
08-Oct-17 12:39 35.507780 -119.152359 313 3002ft 147kts
08-Oct-17 12:40 35.529811 -119.180764 313 3003ft 149kts
08-Oct-17 12:41 35.551761 -119.209143 313 2996ft 147kts
08-Oct-17 12:42 35.574106 -119.238593 313 3052ft 150kts
08-Oct-17 12:43 35.596454 -119.269262 313 3004ft 155kts
08-Oct-17 12:44 35.619533 -119.301009 313 3022ft 153kts
08-Oct-17 12:45 35.643155 -119.333535 313 2999ft 153kts
08-Oct-17 12:46 35.666734 -119.365981 313 2990ft 153kts
08-Oct-17 12:47 35.690460 -119.398700 313 2997ft 155kts
08-Oct-17 12:49 35.714251 -119.431481 313 2992ft 155kts
08-Oct-17 12:50 35.737712 -119.463797 313 3022ft 155kts
08-Oct-17 12:51 35.748079 -119.500562 228 3167ft 157kts
08-Oct-17 12:52 35.722449 -119.488313 105 3962ft 144kts
08-Oct-17 12:53 35.712743 -119.451527 108 4735ft 144kts
08-Oct-17 12:54 35.698066 -119.419874 123 5451ft 146kts
08-Oct-17 12:55 35.680220 -119.392265 129 6176ft 145kts
08-Oct-17 12:55 35.664304 -119.370358 131 6812ft 146kts
08-Oct-17 12:57 35.641123 -119.339925 133 7712ft 149kts
08-Oct-17 12:57 35.624421 -119.318374 133 8387ft 148kts
08-Oct-17 12:59 35.600842 -119.288095 133 9436ft 145kts
08-Oct-17 13:00 35.581354 -119.263096 133 10325ft 142kts
08-Oct-17 13:00 35.565227 -119.242272 134 11068ft 139kts
08-Oct-17 13:01 35.546429 -119.217892 135 11953ft 133kts
08-Oct-17 13:03 35.525976 -119.191399 137 12910ft 126kts
08-Oct-17 13:03 35.509722 -119.170828 137 13049ft 168kts
08-Oct-17 13:04 35.485566 -119.140439 136 13023ft 201kts
08-Oct-17 13:05 35.460027 -119.107904 135 13008ft 213kts
08-Oct-17 13:06 35.433514 -119.074021 135 12985ft 217kts
08-Oct-17 13:07 35.406653 -119.039544 135 12982ft 218kts
08-Oct-17 13:08 35.378785 -119.003855 135 12982ft 218kts
08-Oct-17 13:09 35.349336 -118.966252 135 12982ft 218kts
08-Oct-17 13:10 35.319698 -118.928488 135 12982ft 219kts
08-Oct-17 13:11 35.289885 -118.890561 135 12983ft 219kts
08-Oct-17 13:12 35.262272 -118.855526 135 12984ft 221kts
08-Oct-17 13:13 35.232466 -118.817473 135 13075ft 219kts
08-Oct-17 13:14 35.201067 -118.777635 136 13096ft 225kts
08-Oct-17 13:15 35.170531 -118.739156 135 13094ft 225kts
08-Oct-17 13:16 35.140219 -118.701160 135 13092ft 221kts
08-Oct-17 13:17 35.109706 -118.662510 135 13093ft 218kts
08-Oct-17 13:18 35.080137 -118.625110 135 13094ft 216kts
08-Oct-17 13:19 35.050743 -118.588019 135 13094ft 214kts
08-Oct-17 13:20 35.021905 -118.551698 135 13095ft 214kts
08-Oct-17 13:21 34.992952 -118.515282 135 13096ft 214kts
08-Oct-17 13:22 34.963884 -118.478761 135 13096ft 213kts
08-Oct-17 13:23 34.935123 -118.442675 135 12970ft 216kts
08-Oct-17 13:24 34.905905 -118.406123 135 12650ft 216kts
08-Oct-17 13:25 34.879920 -118.373626 134 12310ft 215kts
08-Oct-17 13:26 34.853409 -118.340501 135 11869ft 215kts
08-Oct-17 13:27 34.826120 -118.306412 134 11395ft 211kts
08-Oct-17 13:28 34.799211 -118.272839 134 10920ft 208kts
08-Oct-17 13:29 34.774969 -118.242599 134 10490ft 206kts
08-Oct-17 13:30 34.750661 -118.212009 134 10058ft 203kts
08-Oct-17 13:31 34.728645 -118.184492 135 9658ft 203kts
08-Oct-17 13:32 34.706613 -118.157040 135 9263ft 203kts
08-Oct-17 13:33 34.688577 -118.122908 102 8828ft 201kts
08-Oct-17 13:34 34.679632 -118.078693 102 8367ft 203kts
08-Oct-17 13:35 34.670892 -118.033713 101 8030ft 199kts
08-Oct-17 13:36 34.662403 -117.989745 101 8024ft 192kts
08-Oct-17 13:37 34.654374 -117.948194 101 8026ft 190kts
08-Oct-17 13:38 34.646620 -117.908094 101 8025ft 187kts
08-Oct-17 13:39 34.639032 -117.868898 101 8025ft 184kts
08-Oct-17 13:40 34.631539 -117.830211 101 8023ft 178kts
08-Oct-17 13:41 34.624192 -117.792391 101 8023ft 171kts
08-Oct-17 13:42 34.616952 -117.755213 101 8026ft 168kts
08-Oct-17 13:43 34.609992 -117.718618 101 7998ft 155kts
08-Oct-17 13:44 34.603591 -117.683683 101 7449ft 153kts
08-Oct-17 13:45 34.597835 -117.651454 101 6897ft 147kts
08-Oct-17 13:46 34.592303 -117.619666 101 6348ft 147kts
08-Oct-17 13:47 34.585314 -117.578305 101 5879ft 142kts
08-Oct-17 13:48 34.579881 -117.545391 101 5650ft 150kts
08-Oct-17 13:49 34.574369 -117.511838 101 5515ft 161kts
08-Oct-17 13:50 34.568888 -117.478235 101 5345ft 169kts
08-Oct-17 13:51 34.563397 -117.444286 101 5161ft 172kts
08-Oct-17 13:52 34.557613 -117.410002 101 4926ft 167kts
08-Oct-17 13:53 34.557184 -117.376852 85 4401ft 146kts
08-Oct-17 13:54 34.569048 -117.352928 35 3913ft 117kts
08-Oct-17 13:55 34.585530 -117.337184 19 3428ft 109kts
08-Oct-17 13:56 34.604913 -117.331309 341 3251ft 99kts
08-Oct-17 13:57 34.613430 -117.347168 277 3114ft 82kts
08-Oct-17 13:58 34.604501 -117.361568 237 2966ft 88kts
08-Oct-17 13:59 34.597594 -117.370931 154 2886ft 15kts
08-Oct-17 14:00 34.597706 -117.371637 314 2886ft 0kts
08-Oct-17 14:01 34.597744 -117.371684 315 2886ft 3kts
08-Oct-17 14:02 34.598322 -117.373076 230 2886ft 0kts
08-Oct-17 14:03 34.598322 -117.373076 230 2886ft 0kts
08-Oct-17 14:04 34.598322 -117.373076 230 2886ft 0kts
08-Oct-17 14:05 34.598322 -117.373076 230 2886ft 0kts
08-Oct-17 14:06 34.598322 -117.373076 230 2886ft 0kts
08-Oct-17 14:07 34.598322 -117.373076 230 2886ft 0kts
08-Oct-17 14:08 34.598322 -117.373076 230 2886ft 0kts
08-Oct-17 14:09 34.598322 -117.373076 230 2886ft 0kts
08-Oct-17 14:10 34.598322 -117.373076 230 2886ft 0kts
08-Oct-17 14:11 34.598322 -117.373076 230 2886ft 0kts
08-Oct-17 14:12 34.598322 -117.373076 230 2886ft 0kts
08-Oct-17 14:13 34.598322 -117.373076 230 2886ft 0kts

Navigation Log

Ident Type
Flight plan parsing failed, navigation log unavailable